Morning Lady — 3FKC3 — position and weather

sailwx.info

Track history (hours):
 
Tides and Currents Weather Stations Pressure Air Temp Water Temp Dewpoint Dewpoint Depression Visibility Wind Speed Wind Dir Waves Ship Positions

Morning Lady

Last reported at 2014-Jul-22 11:18 UTC. Time now 2014-Jul-30 15:15 UTC.
Position N 36°29' E 014°02'.
Warning: this ship's position is 8 days out of date.

Length 234 m; draft 9.8 m.

Type: Ship. MMSI: 356473000.

Date/timePositionNaut miles runAvg speedWind from/ knotsBaromVisibWave heightAir tempDewpointWater temp
2014-Jul-22 11:18N 36°29' E 014°02'1115.4
2014-Jul-22 10:34N 36°35' E 013°49'47415.2
2014-Jul-21 03:18N 37°06' E 003°59'1317.1
2014-Jul-21 02:33N 37°05' E 003°43'1616.4
2014-Jul-21 01:33N 37°03' E 003°22'1716.9
2014-Jul-21 00:34N 37°00' E 003°02'1716.9
2014-Jul-20 23:33N 36°57' E 002°41'1716.9
2014-Jul-20 22:33N 36°55' E 002°20'52816.0
2014-Jul-19 13:29N 36°26' W 008°38'10614.3
2014-Jul-19 06:06N 37°53' W 009°52'915.8
2014-Jul-19 05:33N 38°02' W 009°54'  
2014-Jul-16 22:31N 50°05' W 002°20'2512.9
2014-Jul-16 20:33N 50°17' W 001°45'1515.3
2014-Jul-16 19:33N 50°25' W 001°25'1716.9
2014-Jul-16 18:34N 50°34' W 001°02'1110.9
2014-Jul-16 17:34N 50°44' W 001°05'1110.9
2014-Jul-16 16:34N 50°51' W 001°20'4 3.5
2014-Jul-16 15:33N 50°53' W 001°24'0 0.0
2014-Jul-16 14:33N 50°53' W 001°24'0 0.0
2014-Jul-16 13:33N 50°53' W 001°24'0 0.0
2014-Jul-16 12:33N 50°53' W 001°24'0 0.0
2014-Jul-16 11:33N 50°53' W 001°24'0 0.0
2014-Jul-16 10:33N 50°53' W 001°24'0 0.0
2014-Jul-16 09:34N 50°53' W 001°24'0 0.0
2014-Jul-16 08:34N 50°53' W 001°24'0 0.0
2014-Jul-16 07:33N 50°53' W 001°24'0 0.0
2014-Jul-16 06:33N 50°53' W 001°24'0 0.0
2014-Jul-16 05:33N 50°53' W 001°24'0 0.0
2014-Jul-16 04:33N 50°53' W 001°24'0 0.0
2014-Jul-16 03:33N 50°53' W 001°24'0 0.0
2014-Jul-16 02:33N 50°53' W 001°24'0 0.0
2014-Jul-16 01:33N 50°53' W 001°24'0 0.0
2014-Jul-16 00:33N 50°53' W 001°24'0 0.0
2014-Jul-15 23:33N 50°53' W 001°24'0 0.0
2014-Jul-15 22:33N 50°53' W 001°24'0 0.1
2014-Jul-15 21:33N 50°53' W 001°24'6 6.3
2014-Jul-15 20:34N 50°48' W 001°19'1313.3
2014-Jul-15 19:34N 50°43' W 000°59'9 8.7
2014-Jul-15 18:34N 50°37' W 000°49'1413.6
2014-Jul-15 17:33N 50°34' W 000°28'1414.3
2014-Jul-15 16:34N 50°31' W 000°06'1514.6
2014-Jul-15 15:34N 50°34' E 000°16'1615.7
2014-Jul-15 14:33N 50°39' E 000°40'1514.8
2014-Jul-15 13:33N 50°46' E 000°60'1515.2
2014-Jul-15 12:33N 50°56' E 001°19'1615.9
2014-Jul-15 11:34N 51°07' E 001°36'1817.6
2014-Jul-15 10:34N 51°21' E 001°53'1818.0
2014-Jul-15 09:33N 51°36' E 002°10'1917.3
2014-Jul-15 08:28N 51°50' E 002°30'7714.4
2014-Jul-15 03:05N 52°51' E 003°49'5515.2
2014-Jul-14 23:28N 53°32' E 004°50'1414.9
2014-Jul-14 22:33N 53°35' E 005°12'1414.1
2014-Jul-14 21:34N 53°40' E 005°34'1414.0
2014-Jul-14 20:33N 53°45' E 005°57'6115.3
2014-Jul-14 16:33N 54°01' E 007°36'1413.5
2014-Jul-14 15:32N 53°52' E 007°54'1616.4
2014-Jul-14 14:33N 53°43' E 008°17'1313.2
2014-Jul-14 13:33N 53°34' E 008°33'1 0.7
2014-Jul-14 12:32N 53°35' E 008°33'0 0.1
2014-Jul-14 11:32N 53°35' E 008°33'0 0.0
2014-Jul-14 10:32N 53°35' E 008°33'0 0.0
2014-Jul-14 09:32N 53°35' E 008°33'0 0.0
2014-Jul-14 08:32N 53°35' E 008°33'0 0.0
2014-Jul-14 07:32N 53°35' E 008°33'0 0.0
2014-Jul-14 06:32N 53°35' E 008°33'0 0.0
2014-Jul-14 05:32N 53°35' E 008°33'0 0.0
2014-Jul-14 04:32N 53°35' E 008°33'0 0.0
2014-Jul-14 03:32N 53°35' E 008°33'0 0.0
2014-Jul-14 02:32N 53°35' E 008°33'0 0.0
2014-Jul-14 01:32N 53°35' E 008°33'0 0.0
2014-Jul-14 00:32N 53°35' E 008°33'0 0.0
2014-Jul-13 23:32N 53°35' E 008°33'0 0.0
2014-Jul-13 22:32N 53°35' E 008°33'0 0.0
2014-Jul-13 21:32N 53°35' E 008°33'0 0.0
2014-Jul-13 20:32N 53°35' E 008°33'0 0.0
2014-Jul-13 19:32N 53°35' E 008°33'0 0.0
2014-Jul-13 18:32N 53°35' E 008°33'0 0.0
2014-Jul-13 17:32N 53°35' E 008°33'0 0.0
2014-Jul-13 16:32N 53°35' E 008°33'0 0.0
2014-Jul-13 15:32N 53°35' E 008°33'0 0.0
2014-Jul-13 14:32N 53°35' E 008°33'0 0.0
2014-Jul-13 13:32N 53°35' E 008°33'0 0.0
2014-Jul-13 12:32N 53°35' E 008°33'0 0.0
2014-Jul-13 11:32N 53°35' E 008°33'0 0.0
2014-Jul-13 10:32N 53°35' E 008°33'0 0.0
2014-Jul-13 09:32N 53°35' E 008°33'0 0.0
2014-Jul-13 08:32N 53°35' E 008°33'0 0.0
2014-Jul-13 07:32N 53°35' E 008°33'0 0.0
2014-Jul-13 06:32N 53°35' E 008°33'0 0.0
2014-Jul-13 05:32N 53°35' E 008°33'0 0.0
2014-Jul-13 04:32N 53°35' E 008°33'0 0.0
2014-Jul-13 03:32N 53°35' E 008°33'0 0.0
2014-Jul-13 02:32N 53°35' E 008°33'0 0.0
2014-Jul-13 01:32N 53°35' E 008°33'0 0.0
2014-Jul-13 00:32N 53°35' E 008°33'0 0.0
2014-Jul-12 23:32N 53°35' E 008°33'0 0.0
2014-Jul-12 22:32N 53°35' E 008°33'0 0.0
2014-Jul-12 21:32N 53°35' E 008°33'0 0.0
2014-Jul-12 20:32N 53°35' E 008°33'0 0.0
2014-Jul-12 19:32N 53°35' E 008°33'0 0.0
2014-Jul-12 18:32N 53°35' E 008°33'0 0.0
2014-Jul-12 17:32N 53°35' E 008°33'0 0.0
2014-Jul-12 16:32N 53°35' E 008°33'0 0.0
2014-Jul-12 15:32N 53°35' E 008°33'0 0.0
2014-Jul-12 14:32N 53°35' E 008°33'0 0.0
2014-Jul-12 13:32N 53°35' E 008°33'0 0.0
2014-Jul-12 12:32N 53°35' E 008°33'0 0.0
2014-Jul-12 11:34N 53°35' E 008°33'  
Track history (hours):
 
Tides and Currents Weather Stations Pressure Air Temp Water Temp Dewpoint Dewpoint Depression Visibility Wind Speed Wind Dir Waves Ship Positions

Morning Lady

Last reported at 2014-Jul-22 11:18 UTC. Time now 2014-Jul-30 15:15 UTC.
Position N 36°29' E 014°02'.
Warning: this ship's position is 8 days out of date.

Length 234 m; draft 9.8 m.

Type: Ship. MMSI: 356473000.

Date/timePositionNaut miles runAvg speedWind from/ knotsBaromVisibWave heightAir tempDewpointWater temp
2014-Jul-22 11:18N 36°29' E 014°02'1115.4
2014-Jul-22 10:34N 36°35' E 013°49'47415.2
2014-Jul-21 03:18N 37°06' E 003°59'1317.1
2014-Jul-21 02:33N 37°05' E 003°43'1616.4
2014-Jul-21 01:33N 37°03' E 003°22'1716.9
2014-Jul-21 00:34N 37°00' E 003°02'1716.9
2014-Jul-20 23:33N 36°57' E 002°41'1716.9
2014-Jul-20 22:33N 36°55' E 002°20'52816.0
2014-Jul-19 13:29N 36°26' W 008°38'10614.3
2014-Jul-19 06:06N 37°53' W 009°52'915.8
2014-Jul-19 05:33N 38°02' W 009°54'  
2014-Jul-16 22:31N 50°05' W 002°20'2512.9
2014-Jul-16 20:33N 50°17' W 001°45'1515.3
2014-Jul-16 19:33N 50°25' W 001°25'1716.9
2014-Jul-16 18:34N 50°34' W 001°02'1110.9
2014-Jul-16 17:34N 50°44' W 001°05'1110.9
2014-Jul-16 16:34N 50°51' W 001°20'4 3.5
2014-Jul-16 15:33N 50°53' W 001°24'0 0.0
2014-Jul-16 14:33N 50°53' W 001°24'0 0.0
2014-Jul-16 13:33N 50°53' W 001°24'0 0.0
2014-Jul-16 12:33N 50°53' W 001°24'0 0.0
2014-Jul-16 11:33N 50°53' W 001°24'0 0.0
2014-Jul-16 10:33N 50°53' W 001°24'0 0.0
2014-Jul-16 09:34N 50°53' W 001°24'0 0.0
2014-Jul-16 08:34N 50°53' W 001°24'0 0.0
2014-Jul-16 07:33N 50°53' W 001°24'0 0.0
2014-Jul-16 06:33N 50°53' W 001°24'0 0.0
2014-Jul-16 05:33N 50°53' W 001°24'0 0.0
2014-Jul-16 04:33N 50°53' W 001°24'0 0.0
2014-Jul-16 03:33N 50°53' W 001°24'0 0.0
2014-Jul-16 02:33N 50°53' W 001°24'0 0.0
2014-Jul-16 01:33N 50°53' W 001°24'0 0.0
2014-Jul-16 00:33N 50°53' W 001°24'0 0.0
2014-Jul-15 23:33N 50°53' W 001°24'0 0.0
2014-Jul-15 22:33N 50°53' W 001°24'0 0.1
2014-Jul-15 21:33N 50°53' W 001°24'6 6.3
2014-Jul-15 20:34N 50°48' W 001°19'1313.3
2014-Jul-15 19:34N 50°43' W 000°59'9 8.7
2014-Jul-15 18:34N 50°37' W 000°49'1413.6
2014-Jul-15 17:33N 50°34' W 000°28'1414.3
2014-Jul-15 16:34N 50°31' W 000°06'1514.6
2014-Jul-15 15:34N 50°34' E 000°16'1615.7
2014-Jul-15 14:33N 50°39' E 000°40'1514.8
2014-Jul-15 13:33N 50°46' E 000°60'1515.2
2014-Jul-15 12:33N 50°56' E 001°19'1615.9
2014-Jul-15 11:34N 51°07' E 001°36'1817.6
2014-Jul-15 10:34N 51°21' E 001°53'1818.0
2014-Jul-15 09:33N 51°36' E 002°10'1917.3
2014-Jul-15 08:28N 51°50' E 002°30'7714.4
2014-Jul-15 03:05N 52°51' E 003°49'5515.2
2014-Jul-14 23:28N 53°32' E 004°50'1414.9
2014-Jul-14 22:33N 53°35' E 005°12'1414.1
2014-Jul-14 21:34N 53°40' E 005°34'1414.0
2014-Jul-14 20:33N 53°45' E 005°57'6115.3
2014-Jul-14 16:33N 54°01' E 007°36'1413.5
2014-Jul-14 15:32N 53°52' E 007°54'1616.4
2014-Jul-14 14:33N 53°43' E 008°17'1313.2
2014-Jul-14 13:33N 53°34' E 008°33'1 0.7
2014-Jul-14 12:32N 53°35' E 008°33'0 0.1
2014-Jul-14 11:32N 53°35' E 008°33'0 0.0
2014-Jul-14 10:32N 53°35' E 008°33'0 0.0
2014-Jul-14 09:32N 53°35' E 008°33'0 0.0
2014-Jul-14 08:32N 53°35' E 008°33'0 0.0
2014-Jul-14 07:32N 53°35' E 008°33'0 0.0
2014-Jul-14 06:32N 53°35' E 008°33'0 0.0
2014-Jul-14 05:32N 53°35' E 008°33'0 0.0
2014-Jul-14 04:32N 53°35' E 008°33'0 0.0
2014-Jul-14 03:32N 53°35' E 008°33'0 0.0
2014-Jul-14 02:32N 53°35' E 008°33'0 0.0
2014-Jul-14 01:32N 53°35' E 008°33'0 0.0
2014-Jul-14 00:32N 53°35' E 008°33'0 0.0
2014-Jul-13 23:32N 53°35' E 008°33'0 0.0
2014-Jul-13 22:32N 53°35' E 008°33'0 0.0
2014-Jul-13 21:32N 53°35' E 008°33'0 0.0
2014-Jul-13 20:32N 53°35' E 008°33'0 0.0
2014-Jul-13 19:32N 53°35' E 008°33'0 0.0
2014-Jul-13 18:32N 53°35' E 008°33'0 0.0
2014-Jul-13 17:32N 53°35' E 008°33'0 0.0
2014-Jul-13 16:32N 53°35' E 008°33'0 0.0
2014-Jul-13 15:32N 53°35' E 008°33'0 0.0
2014-Jul-13 14:32N 53°35' E 008°33'0 0.0
2014-Jul-13 13:32N 53°35' E 008°33'0 0.0
2014-Jul-13 12:32N 53°35' E 008°33'0 0.0
2014-Jul-13 11:32N 53°35' E 008°33'0 0.0
2014-Jul-13 10:32N 53°35' E 008°33'0 0.0
2014-Jul-13 09:32N 53°35' E 008°33'0 0.0
2014-Jul-13 08:32N 53°35' E 008°33'0 0.0
2014-Jul-13 07:32N 53°35' E 008°33'0 0.0
2014-Jul-13 06:32N 53°35' E 008°33'0 0.0
2014-Jul-13 05:32N 53°35' E 008°33'0 0.0
2014-Jul-13 04:32N 53°35' E 008°33'0 0.0
2014-Jul-13 03:32N 53°35' E 008°33'0 0.0
2014-Jul-13 02:32N 53°35' E 008°33'0 0.0
2014-Jul-13 01:32N 53°35' E 008°33'0 0.0
2014-Jul-13 00:32N 53°35' E 008°33'0 0.0
2014-Jul-12 23:32N 53°35' E 008°33'0 0.0
2014-Jul-12 22:32N 53°35' E 008°33'0 0.0
2014-Jul-12 21:32N 53°35' E 008°33'0 0.0
2014-Jul-12 20:32N 53°35' E 008°33'0 0.0
2014-Jul-12 19:32N 53°35' E 008°33'0 0.0
2014-Jul-12 18:32N 53°35' E 008°33'0 0.0
2014-Jul-12 17:32N 53°35' E 008°33'0 0.0
2014-Jul-12 16:32N 53°35' E 008°33'0 0.0
2014-Jul-12 15:32N 53°35' E 008°33'0 0.0
2014-Jul-12 14:32N 53°35' E 008°33'0 0.0
2014-Jul-12 13:32N 53°35' E 008°33'0 0.0
2014-Jul-12 12:32N 53°35' E 008°33'0 0.0
2014-Jul-12 11:34N 53°35' E 008°33'  

Dump ship's entire track history